CheckWX is a tool to help pilots better visualize weather data.  It is not intended as a substitute for an official pre-flight weather briefing.

17:05:37 UTC

KFSM METAR
Fort Smith Regional Airport
Fort Smith, Arkansas, USA
Current

13 mins ago

KFSM 171653Z 05003KT CLR 09/03 A3007 RMK AO2 SLP184 T00890028 $
Observed
Nov-17 @ 16:53 UTC
Wind
  • 050° at 3 KTS
Visibility
Cloud Levels
  • Clear skies
Temperature
C / 48°F
Dewpoint
C / 37°F
Humidity
66%
Altimeter
30.07" Hg
Pressure
1018.32 hPa
Previous

1 hour ago

KFSM 171553Z 05003KT CLR 08/02 A3009 RMK AO2 SLP191 T00830022 $
Observed
Nov-17 @ 15:53 UTC
Wind
  • 050° at 3 KTS
Visibility
Cloud Levels
  • Clear skies
Temperature
C / 46°F
Dewpoint
C / 36°F
Humidity
66%
Altimeter
30.09" Hg
Pressure
1018.92 hPa
Previous

2 hours ago

KFSM 171453Z 07004KT CLR 06/03 A3010 RMK AO2 SLP193 T00560028 51006 $
Observed
Nov-17 @ 14:53 UTC
Wind
  • 070° at 4 KTS
Visibility
Cloud Levels
  • Clear skies
Temperature
C / 43°F
Dewpoint
C / 37°F
Humidity
81%
Altimeter
30.1" Hg
Pressure
1019.32 hPa